sensor_id;sensor_type;location;lat;lon;timestamp;temperature;humidity
8214;DHT22;4148;47.974;7.824;2023-05-10T00:01:13;13.90;99.90
8214;DHT22;4148;47.974;7.824;2023-05-10T00:03:41;14.00;99.90
8214;DHT22;4148;47.974;7.824;2023-05-10T00:06:09;14.00;99.90
8214;DHT22;4148;47.974;7.824;2023-05-10T00:08:36;14.00;99.90
8214;DHT22;4148;47.974;7.824;2023-05-10T00:11:04;13.90;99.90
8214;DHT22;4148;47.974;7.824;2023-05-10T00:13:32;13.90;99.90
8214;DHT22;4148;47.974;7.824;2023-05-10T00:16:00;13.90;99.90
8214;DHT22;4148;47.974;7.824;2023-05-10T00:18:30;13.80;99.90
8214;DHT22;4148;47.974;7.824;2023-05-10T00:20:57;13.90;99.90
8214;DHT22;4148;47.974;7.824;2023-05-10T00:23:25;13.80;99.90
8214;DHT22;4148;47.974;7.824;2023-05-10T00:25:53;13.80;99.90
8214;DHT22;4148;47.974;7.824;2023-05-10T00:28:21;13.80;99.90
8214;DHT22;4148;47.974;7.824;2023-05-10T00:30:49;13.90;99.90
8214;DHT22;4148;47.974;7.824;2023-05-10T00:33:16;13.80;99.90
8214;DHT22;4148;47.974;7.824;2023-05-10T00:35:46;13.80;99.90
8214;DHT22;4148;47.974;7.824;2023-05-10T00:38:14;13.80;99.90
8214;DHT22;4148;47.974;7.824;2023-05-10T00:40:42;13.80;99.90
8214;DHT22;4148;47.974;7.824;2023-05-10T00:43:10;13.80;99.90
8214;DHT22;4148;47.974;7.824;2023-05-10T00:45:39;13.80;99.90
8214;DHT22;4148;47.974;7.824;2023-05-10T00:48:08;13.70;99.90
8214;DHT22;4148;47.974;7.824;2023-05-10T00:50:36;13.70;99.90
8214;DHT22;4148;47.974;7.824;2023-05-10T00:53:05;13.70;99.90
8214;DHT22;4148;47.974;7.824;2023-05-10T00:55:33;13.70;99.90
8214;DHT22;4148;47.974;7.824;2023-05-10T00:58:01;13.70;99.90
8214;DHT22;4148;47.974;7.824;2023-05-10T01:00:30;13.60;99.90
8214;DHT22;4148;47.974;7.824;2023-05-10T01:02:58;13.60;99.90
8214;DHT22;4148;47.974;7.824;2023-05-10T01:05:26;13.50;99.90
8214;DHT22;4148;47.974;7.824;2023-05-10T01:07:54;13.60;99.90
8214;DHT22;4148;47.974;7.824;2023-05-10T01:10:24;13.60;99.90
8214;DHT22;4148;47.974;7.824;2023-05-10T01:12:52;13.60;99.90
8214;DHT22;4148;47.974;7.824;2023-05-10T01:15:20;13.60;99.90
8214;DHT22;4148;47.974;7.824;2023-05-10T01:17:49;13.70;99.90
8214;DHT22;4148;47.974;7.824;2023-05-10T01:20:17;13.60;99.90
8214;DHT22;4148;47.974;7.824;2023-05-10T01:23:10;13.60;99.90
8214;DHT22;4148;47.974;7.824;2023-05-10T01:29:35;13.70;99.90
8214;DHT22;4148;47.974;7.824;2023-05-10T01:32:26;13.60;99.90
8214;DHT22;4148;47.974;7.824;2023-05-10T01:35:00;13.60;99.90
8214;DHT22;4148;47.974;7.824;2023-05-10T01:37:37;13.60;99.90
8214;DHT22;4148;47.974;7.824;2023-05-10T01:40:13;13.60;99.90
8214;DHT22;4148;47.974;7.824;2023-05-10T01:42:48;13.60;99.90
8214;DHT22;4148;47.974;7.824;2023-05-10T01:45:21;13.60;99.90
8214;DHT22;4148;47.974;7.824;2023-05-10T01:48:06;13.60;99.90
8214;DHT22;4148;47.974;7.824;2023-05-10T01:50:37;13.50;99.90
8214;DHT22;4148;47.974;7.824;2023-05-10T01:53:07;13.50;99.90
8214;DHT22;4148;47.974;7.824;2023-05-10T01:55:41;13.50;99.90
8214;DHT22;4148;47.974;7.824;2023-05-10T01:58:13;13.60;99.90
8214;DHT22;4148;47.974;7.824;2023-05-10T02:00:43;13.60;99.90
8214;DHT22;4148;47.974;7.824;2023-05-10T02:03:15;13.60;99.90
8214;DHT22;4148;47.974;7.824;2023-05-10T02:05:43;13.50;99.90
8214;DHT22;4148;47.974;7.824;2023-05-10T02:08:13;13.50;99.90
8214;DHT22;4148;47.974;7.824;2023-05-10T02:10:43;13.50;99.90
8214;DHT22;4148;47.974;7.824;2023-05-10T02:13:13;13.60;99.90
8214;DHT22;4148;47.974;7.824;2023-05-10T02:15:42;13.60;99.90
8214;DHT22;4148;47.974;7.824;2023-05-10T02:18:12;13.50;99.90
8214;DHT22;4148;47.974;7.824;2023-05-10T02:20:42;13.50;99.90
8214;DHT22;4148;47.974;7.824;2023-05-10T02:23:11;13.60;99.90
8214;DHT22;4148;47.974;7.824;2023-05-10T02:25:39;13.60;99.90
8214;DHT22;4148;47.974;7.824;2023-05-10T02:28:10;13.60;99.90
8214;DHT22;4148;47.974;7.824;2023-05-10T02:30:39;13.50;99.90
8214;DHT22;4148;47.974;7.824;2023-05-10T02:33:07;13.50;99.90
8214;DHT22;4148;47.974;7.824;2023-05-10T02:35:38;13.50;99.90
8214;DHT22;4148;47.974;7.824;2023-05-10T02:38:06;13.50;99.90
8214;DHT22;4148;47.974;7.824;2023-05-10T02:40:36;13.50;99.90
8214;DHT22;4148;47.974;7.824;2023-05-10T02:43:05;13.50;99.90
8214;DHT22;4148;47.974;7.824;2023-05-10T02:45:35;13.50;99.90
8214;DHT22;4148;47.974;7.824;2023-05-10T02:48:05;13.50;99.90
8214;DHT22;4148;47.974;7.824;2023-05-10T02:50:34;13.50;99.90
8214;DHT22;4148;47.974;7.824;2023-05-10T02:53:10;13.50;99.90
8214;DHT22;4148;47.974;7.824;2023-05-10T02:55:40;13.50;99.90
8214;DHT22;4148;47.974;7.824;2023-05-10T02:58:09;13.40;99.90
8214;DHT22;4148;47.974;7.824;2023-05-10T03:00:37;13.40;99.90
8214;DHT22;4148;47.974;7.824;2023-05-10T03:03:05;13.40;99.90
8214;DHT22;4148;47.974;7.824;2023-05-10T03:05:33;13.40;99.90
8214;DHT22;4148;47.974;7.824;2023-05-10T03:08:01;13.50;99.90
8214;DHT22;4148;47.974;7.824;2023-05-10T03:10:32;13.50;99.90
8214;DHT22;4148;47.974;7.824;2023-05-10T03:13:19;13.40;99.90
8214;DHT22;4148;47.974;7.824;2023-05-10T03:15:59;13.40;99.90
8214;DHT22;4148;47.974;7.824;2023-05-10T03:18:39;13.40;99.90
8214;DHT22;4148;47.974;7.824;2023-05-10T03:21:11;13.40;99.90
8214;DHT22;4148;47.974;7.824;2023-05-10T03:23:43;13.30;99.90
8214;DHT22;4148;47.974;7.824;2023-05-10T03:26:15;13.30;99.90
8214;DHT22;4148;47.974;7.824;2023-05-10T03:28:45;13.30;99.90
8214;DHT22;4148;47.974;7.824;2023-05-10T03:31:15;13.30;99.90
8214;DHT22;4148;47.974;7.824;2023-05-10T03:33:46;13.20;99.90
8214;DHT22;4148;47.974;7.824;2023-05-10T03:36:14;13.30;99.90
8214;DHT22;4148;47.974;7.824;2023-05-10T03:38:42;13.30;99.90
8214;DHT22;4148;47.974;7.824;2023-05-10T03:41:10;13.30;99.90
8214;DHT22;4148;47.974;7.824;2023-05-10T03:43:40;13.30;99.90
8214;DHT22;4148;47.974;7.824;2023-05-10T03:46:08;13.30;99.90
8214;DHT22;4148;47.974;7.824;2023-05-10T03:48:36;13.30;99.90
8214;DHT22;4148;47.974;7.824;2023-05-10T03:51:04;13.20;99.90
8214;DHT22;4148;47.974;7.824;2023-05-10T03:53:31;13.30;99.90
8214;DHT22;4148;47.974;7.824;2023-05-10T03:55:59;13.20;99.90
8214;DHT22;4148;47.974;7.824;2023-05-10T03:58:27;13.20;99.90
8214;DHT22;4148;47.974;7.824;2023-05-10T04:00:56;13.20;99.90
8214;DHT22;4148;47.974;7.824;2023-05-10T04:03:24;13.20;99.90
8214;DHT22;4148;47.974;7.824;2023-05-10T04:05:59;13.20;99.90
8214;DHT22;4148;47.974;7.824;2023-05-10T04:08:27;13.20;99.90
8214;DHT22;4148;47.974;7.824;2023-05-10T04:11:04;13.20;99.90
8214;DHT22;4148;47.974;7.824;2023-05-10T04:13:32;13.20;99.90
8214;DHT22;4148;47.974;7.824;2023-05-10T04:16:01;13.10;99.90
8214;DHT22;4148;47.974;7.824;2023-05-10T04:18:29;13.10;99.90
8214;DHT22;4148;47.974;7.824;2023-05-10T04:20:57;13.00;99.90
8214;DHT22;4148;47.974;7.824;2023-05-10T04:23:26;13.10;99.90
8214;DHT22;4148;47.974;7.824;2023-05-10T04:25:59;13.00;99.90
8214;DHT22;4148;47.974;7.824;2023-05-10T04:28:27;13.10;99.90
8214;DHT22;4148;47.974;7.824;2023-05-10T04:31:02;13.10;99.90
8214;DHT22;4148;47.974;7.824;2023-05-10T04:33:30;13.00;99.90
8214;DHT22;4148;47.974;7.824;2023-05-10T04:35:59;13.00;99.90
8214;DHT22;4148;47.974;7.824;2023-05-10T04:38:27;13.10;99.90
8214;DHT22;4148;47.974;7.824;2023-05-10T04:41:03;13.10;99.90
8214;DHT22;4148;47.974;7.824;2023-05-10T04:43:31;13.10;99.90
8214;DHT22;4148;47.974;7.824;2023-05-10T04:45:59;13.20;99.90
8214;DHT22;4148;47.974;7.824;2023-05-10T04:48:28;13.20;99.90
8214;DHT22;4148;47.974;7.824;2023-05-10T04:50:56;13.20;99.90
8214;DHT22;4148;47.974;7.824;2023-05-10T04:53:24;13.20;99.90
8214;DHT22;4148;47.974;7.824;2023-05-10T04:55:52;13.20;99.90
8214;DHT22;4148;47.974;7.824;2023-05-10T04:58:20;13.30;99.90
8214;DHT22;4148;47.974;7.824;2023-05-10T05:00:48;13.30;99.90
8214;DHT22;4148;47.974;7.824;2023-05-10T05:03:15;13.30;99.90
8214;DHT22;4148;47.974;7.824;2023-05-10T05:08:13;13.20;99.90
8214;DHT22;4148;47.974;7.824;2023-05-10T05:10:41;13.20;99.90
8214;DHT22;4148;47.974;7.824;2023-05-10T05:13:09;13.30;99.90
8214;DHT22;4148;47.974;7.824;2023-05-10T05:15:37;13.30;99.90
8214;DHT22;4148;47.974;7.824;2023-05-10T05:18:04;13.30;99.90
8214;DHT22;4148;47.974;7.824;2023-05-10T05:20:32;13.30;99.90
8214;DHT22;4148;47.974;7.824;2023-05-10T05:23:02;13.30;99.90
8214;DHT22;4148;47.974;7.824;2023-05-10T05:25:30;13.30;99.90
8214;DHT22;4148;47.974;7.824;2023-05-10T05:27:58;13.20;99.90
8214;DHT22;4148;47.974;7.824;2023-05-10T05:30:26;13.20;99.90
8214;DHT22;4148;47.974;7.824;2023-05-10T05:32:54;13.30;99.90
8214;DHT22;4148;47.974;7.824;2023-05-10T05:35:21;13.30;99.90
8214;DHT22;4148;47.974;7.824;2023-05-10T05:37:49;13.30;99.90
8214;DHT22;4148;47.974;7.824;2023-05-10T05:40:18;13.30;99.90
8214;DHT22;4148;47.974;7.824;2023-05-10T05:42:47;13.30;99.90
8214;DHT22;4148;47.974;7.824;2023-05-10T05:45:15;13.30;99.90
8214;DHT22;4148;47.974;7.824;2023-05-10T05:47:44;13.30;99.90
8214;DHT22;4148;47.974;7.824;2023-05-10T05:50:12;13.30;99.90
8214;DHT22;4148;47.974;7.824;2023-05-10T05:52:40;13.20;99.90
8214;DHT22;4148;47.974;7.824;2023-05-10T05:55:08;13.20;99.90
8214;DHT22;4148;47.974;7.824;2023-05-10T05:57:37;13.10;99.90
8214;DHT22;4148;47.974;7.824;2023-05-10T06:00:06;13.10;99.90
8214;DHT22;4148;47.974;7.824;2023-05-10T06:02:34;13.00;99.90
8214;DHT22;4148;47.974;7.824;2023-05-10T06:05:02;13.00;99.90
8214;DHT22;4148;47.974;7.824;2023-05-10T06:07:30;13.00;99.90
8214;DHT22;4148;47.974;7.824;2023-05-10T06:09:58;13.00;99.90
8214;DHT22;4148;47.974;7.824;2023-05-10T06:12:26;13.00;99.90
8214;DHT22;4148;47.974;7.824;2023-05-10T06:14:55;13.00;99.90
8214;DHT22;4148;47.974;7.824;2023-05-10T06:17:23;13.00;99.90
8214;DHT22;4148;47.974;7.824;2023-05-10T06:19:51;13.00;99.90
8214;DHT22;4148;47.974;7.824;2023-05-10T06:22:19;13.00;99.90
8214;DHT22;4148;47.974;7.824;2023-05-10T06:24:49;13.00;99.90
8214;DHT22;4148;47.974;7.824;2023-05-10T06:27:17;13.00;99.90
8214;DHT22;4148;47.974;7.824;2023-05-10T06:29:45;13.00;99.90
8214;DHT22;4148;47.974;7.824;2023-05-10T06:32:14;13.00;99.90
8214;DHT22;4148;47.974;7.824;2023-05-10T06:34:41;13.00;99.90
8214;DHT22;4148;47.974;7.824;2023-05-10T06:37:10;13.00;99.90
8214;DHT22;4148;47.974;7.824;2023-05-10T06:39:38;13.00;99.90
8214;DHT22;4148;47.974;7.824;2023-05-10T06:42:06;13.10;99.90
8214;DHT22;4148;47.974;7.824;2023-05-10T06:44:34;13.00;99.90
8214;DHT22;4148;47.974;7.824;2023-05-10T06:47:02;13.10;99.90
8214;DHT22;4148;47.974;7.824;2023-05-10T06:49:31;13.20;99.90
8214;DHT22;4148;47.974;7.824;2023-05-10T06:51:59;13.20;99.90
8214;DHT22;4148;47.974;7.824;2023-05-10T06:54:26;13.20;99.90
8214;DHT22;4148;47.974;7.824;2023-05-10T06:56:54;13.30;99.90
8214;DHT22;4148;47.974;7.824;2023-05-10T06:59:22;13.30;99.90
8214;DHT22;4148;47.974;7.824;2023-05-10T07:01:50;13.30;99.90
8214;DHT22;4148;47.974;7.824;2023-05-10T07:04:18;13.30;99.90
8214;DHT22;4148;47.974;7.824;2023-05-10T07:06:47;13.40;99.90
8214;DHT22;4148;47.974;7.824;2023-05-10T07:09:16;13.40;99.90
8214;DHT22;4148;47.974;7.824;2023-05-10T07:11:44;13.50;99.90
8214;DHT22;4148;47.974;7.824;2023-05-10T07:14:12;13.50;99.90
8214;DHT22;4148;47.974;7.824;2023-05-10T07:16:39;13.60;99.90
8214;DHT22;4148;47.974;7.824;2023-05-10T07:19:08;13.60;99.90
8214;DHT22;4148;47.974;7.824;2023-05-10T07:21:36;13.70;99.90
8214;DHT22;4148;47.974;7.824;2023-05-10T07:24:05;13.70;99.90
8214;DHT22;4148;47.974;7.824;2023-05-10T07:26:33;13.70;99.90
8214;DHT22;4148;47.974;7.824;2023-05-10T07:29:01;13.70;99.90
8214;DHT22;4148;47.974;7.824;2023-05-10T07:31:29;13.70;99.90
8214;DHT22;4148;47.974;7.824;2023-05-10T07:33:57;13.60;99.90
8214;DHT22;4148;47.974;7.824;2023-05-10T07:36:25;13.60;99.90
8214;DHT22;4148;47.974;7.824;2023-05-10T07:38:53;13.60;99.90
8214;DHT22;4148;47.974;7.824;2023-05-10T07:41:22;13.70;99.90
8214;DHT22;4148;47.974;7.824;2023-05-10T07:43:50;13.70;99.90
8214;DHT22;4148;47.974;7.824;2023-05-10T07:46:18;13.70;99.90
8214;DHT22;4148;47.974;7.824;2023-05-10T07:48:46;13.80;99.90
8214;DHT22;4148;47.974;7.824;2023-05-10T07:51:14;13.90;99.90
8214;DHT22;4148;47.974;7.824;2023-05-10T07:53:43;14.00;99.90
8214;DHT22;4148;47.974;7.824;2023-05-10T07:56:23;14.20;99.90
8214;DHT22;4148;47.974;7.824;2023-05-10T07:58:51;14.30;99.90
8214;DHT22;4148;47.974;7.824;2023-05-10T08:01:19;14.40;99.90
8214;DHT22;4148;47.974;7.824;2023-05-10T08:03:47;14.40;99.90
8214;DHT22;4148;47.974;7.824;2023-05-10T08:06:17;14.50;99.90
8214;DHT22;4148;47.974;7.824;2023-05-10T08:08:45;14.60;99.90
8214;DHT22;4148;47.974;7.824;2023-05-10T08:11:16;14.60;99.90
8214;DHT22;4148;47.974;7.824;2023-05-10T08:13:45;14.90;99.90
8214;DHT22;4148;47.974;7.824;2023-05-10T08:16:13;15.10;99.90
8214;DHT22;4148;47.974;7.824;2023-05-10T08:18:43;15.40;99.90
8214;DHT22;4148;47.974;7.824;2023-05-10T08:21:11;15.50;99.90
8214;DHT22;4148;47.974;7.824;2023-05-10T08:23:39;15.90;99.90
8214;DHT22;4148;47.974;7.824;2023-05-10T08:26:07;16.00;99.90
8214;DHT22;4148;47.974;7.824;2023-05-10T08:28:35;16.30;99.90
8214;DHT22;4148;47.974;7.824;2023-05-10T08:31:04;16.60;99.90
8214;DHT22;4148;47.974;7.824;2023-05-10T08:33:32;17.00;99.90
8214;DHT22;4148;47.974;7.824;2023-05-10T08:36:00;17.10;99.90
8214;DHT22;4148;47.974;7.824;2023-05-10T08:38:28;17.20;99.90
8214;DHT22;4148;47.974;7.824;2023-05-10T08:40:55;17.50;99.90
8214;DHT22;4148;47.974;7.824;2023-05-10T08:43:26;17.60;99.90
8214;DHT22;4148;47.974;7.824;2023-05-10T08:45:55;17.70;99.90
8214;DHT22;4148;47.974;7.824;2023-05-10T08:48:26;17.60;99.90
8214;DHT22;4148;47.974;7.824;2023-05-10T08:50:58;17.60;99.90
8214;DHT22;4148;47.974;7.824;2023-05-10T08:53:27;17.50;99.90
8214;DHT22;4148;47.974;7.824;2023-05-10T08:55:57;17.80;99.90
8214;DHT22;4148;47.974;7.824;2023-05-10T08:58:25;18.10;99.90
8214;DHT22;4148;47.974;7.824;2023-05-10T09:00:53;18.40;99.90
8214;DHT22;4148;47.974;7.824;2023-05-10T09:03:21;18.50;99.90
8214;DHT22;4148;47.974;7.824;2023-05-10T09:05:50;18.50;99.90
8214;DHT22;4148;47.974;7.824;2023-05-10T09:08:19;18.40;99.90
8214;DHT22;4148;47.974;7.824;2023-05-10T09:10:48;18.40;99.90
8214;DHT22;4148;47.974;7.824;2023-05-10T09:13:17;18.70;99.90
8214;DHT22;4148;47.974;7.824;2023-05-10T09:15:46;18.80;99.90
8214;DHT22;4148;47.974;7.824;2023-05-10T09:18:14;18.80;99.90
8214;DHT22;4148;47.974;7.824;2023-05-10T09:20:42;18.70;99.90
8214;DHT22;4148;47.974;7.824;2023-05-10T09:23:11;18.20;99.90
8214;DHT22;4148;47.974;7.824;2023-05-10T09:25:41;17.90;99.90
8214;DHT22;4148;47.974;7.824;2023-05-10T09:28:09;17.80;99.90
8214;DHT22;4148;47.974;7.824;2023-05-10T09:30:37;18.00;99.90
8214;DHT22;4148;47.974;7.824;2023-05-10T09:33:05;18.30;99.90
8214;DHT22;4148;47.974;7.824;2023-05-10T09:35:34;18.40;99.90
8214;DHT22;4148;47.974;7.824;2023-05-10T09:38:03;18.10;99.90
8214;DHT22;4148;47.974;7.824;2023-05-10T09:40:33;17.70;99.90
8214;DHT22;4148;47.974;7.824;2023-05-10T09:43:03;17.60;99.90
8214;DHT22;4148;47.974;7.824;2023-05-10T09:45:33;17.60;99.90
8214;DHT22;4148;47.974;7.824;2023-05-10T09:48:05;18.00;99.90
8214;DHT22;4148;47.974;7.824;2023-05-10T09:50:33;18.40;99.90
8214;DHT22;4148;47.974;7.824;2023-05-10T09:53:02;18.90;99.90
8214;DHT22;4148;47.974;7.824;2023-05-10T09:55:40;19.30;99.90
8214;DHT22;4148;47.974;7.824;2023-05-10T09:58:10;19.40;99.90
8214;DHT22;4148;47.974;7.824;2023-05-10T10:00:40;19.40;99.90
8214;DHT22;4148;47.974;7.824;2023-05-10T10:03:13;19.30;99.90
8214;DHT22;4148;47.974;7.824;2023-05-10T10:05:43;19.30;99.90
8214;DHT22;4148;47.974;7.824;2023-05-10T10:08:12;19.30;99.90
8214;DHT22;4148;47.974;7.824;2023-05-10T10:10:41;19.10;99.90
8214;DHT22;4148;47.974;7.824;2023-05-10T10:13:12;19.10;99.90
8214;DHT22;4148;47.974;7.824;2023-05-10T10:15:42;19.30;99.90
8214;DHT22;4148;47.974;7.824;2023-05-10T10:18:13;19.50;99.90
8214;DHT22;4148;47.974;7.824;2023-05-10T10:20:42;19.60;99.90
8214;DHT22;4148;47.974;7.824;2023-05-10T10:23:10;19.30;99.90
8214;DHT22;4148;47.974;7.824;2023-05-10T10:25:38;18.60;99.90
8214;DHT22;4148;47.974;7.824;2023-05-10T10:28:18;18.20;99.90
8214;DHT22;4148;47.974;7.824;2023-05-10T10:30:51;18.00;99.90
8214;DHT22;4148;47.974;7.824;2023-05-10T10:33:39;17.80;99.90
8214;DHT22;4148;47.974;7.824;2023-05-10T10:36:07;18.20;99.90
8214;DHT22;4148;47.974;7.824;2023-05-10T10:38:37;18.30;99.90
8214;DHT22;4148;47.974;7.824;2023-05-10T10:41:10;18.20;99.90
8214;DHT22;4148;47.974;7.824;2023-05-10T10:43:39;18.30;99.90
8214;DHT22;4148;47.974;7.824;2023-05-10T10:46:12;18.40;99.90
8214;DHT22;4148;47.974;7.824;2023-05-10T10:48:43;18.60;99.90
8214;DHT22;4148;47.974;7.824;2023-05-10T10:51:14;19.00;99.90
8214;DHT22;4148;47.974;7.824;2023-05-10T10:53:43;19.20;99.90
8214;DHT22;4148;47.974;7.824;2023-05-10T10:56:12;19.30;99.90
8214;DHT22;4148;47.974;7.824;2023-05-10T10:58:49;19.80;99.90
8214;DHT22;4148;47.974;7.824;2023-05-10T11:01:19;20.30;99.90
8214;DHT22;4148;47.974;7.824;2023-05-10T11:04:18;20.90;99.90
8214;DHT22;4148;47.974;7.824;2023-05-10T11:06:46;21.20;99.90
8214;DHT22;4148;47.974;7.824;2023-05-10T11:09:14;20.70;99.90
8214;DHT22;4148;47.974;7.824;2023-05-10T11:11:49;20.00;99.90
8214;DHT22;4148;47.974;7.824;2023-05-10T11:14:21;19.40;99.90
8214;DHT22;4148;47.974;7.824;2023-05-10T11:16:50;19.10;99.90
8214;DHT22;4148;47.974;7.824;2023-05-10T11:19:18;19.10;99.90
8214;DHT22;4148;47.974;7.824;2023-05-10T11:21:49;19.10;99.90
8214;DHT22;4148;47.974;7.824;2023-05-10T11:24:18;19.00;99.90
8214;DHT22;4148;47.974;7.824;2023-05-10T11:26:49;18.80;99.90
8214;DHT22;4148;47.974;7.824;2023-05-10T11:29:17;18.70;99.90
8214;DHT22;4148;47.974;7.824;2023-05-10T11:31:48;18.60;99.90
8214;DHT22;4148;47.974;7.824;2023-05-10T11:34:23;18.50;99.90
8214;DHT22;4148;47.974;7.824;2023-05-10T11:36:52;18.30;99.90
8214;DHT22;4148;47.974;7.824;2023-05-10T11:39:20;18.20;99.90
8214;DHT22;4148;47.974;7.824;2023-05-10T11:41:49;18.40;99.90
8214;DHT22;4148;47.974;7.824;2023-05-10T11:44:17;18.40;99.90
8214;DHT22;4148;47.974;7.824;2023-05-10T11:46:45;18.30;99.90
8214;DHT22;4148;47.974;7.824;2023-05-10T11:49:14;18.20;99.90
8214;DHT22;4148;47.974;7.824;2023-05-10T11:51:42;18.30;99.90
8214;DHT22;4148;47.974;7.824;2023-05-10T11:54:11;18.20;99.90
8214;DHT22;4148;47.974;7.824;2023-05-10T11:56:40;18.00;99.90
8214;DHT22;4148;47.974;7.824;2023-05-10T11:59:08;17.90;99.90
8214;DHT22;4148;47.974;7.824;2023-05-10T12:01:36;17.80;99.90
8214;DHT22;4148;47.974;7.824;2023-05-10T12:04:04;17.80;99.90
8214;DHT22;4148;47.974;7.824;2023-05-10T12:06:40;17.80;99.90
8214;DHT22;4148;47.974;7.824;2023-05-10T12:09:08;17.80;99.90
8214;DHT22;4148;47.974;7.824;2023-05-10T12:11:38;17.90;99.90
8214;DHT22;4148;47.974;7.824;2023-05-10T12:14:10;17.90;99.90
8214;DHT22;4148;47.974;7.824;2023-05-10T12:16:38;17.90;99.90
8214;DHT22;4148;47.974;7.824;2023-05-10T12:19:06;17.80;99.90
8214;DHT22;4148;47.974;7.824;2023-05-10T12:21:35;17.70;99.90
8214;DHT22;4148;47.974;7.824;2023-05-10T12:24:05;17.70;99.90
8214;DHT22;4148;47.974;7.824;2023-05-10T12:26:35;17.60;99.90
8214;DHT22;4148;47.974;7.824;2023-05-10T12:29:13;17.50;99.90
8214;DHT22;4148;47.974;7.824;2023-05-10T12:31:52;17.40;99.90
8214;DHT22;4148;47.974;7.824;2023-05-10T12:34:25;17.40;99.90
8214;DHT22;4148;47.974;7.824;2023-05-10T12:36:55;17.30;99.90
8214;DHT22;4148;47.974;7.824;2023-05-10T12:39:23;17.20;99.90
8214;DHT22;4148;47.974;7.824;2023-05-10T12:41:51;17.00;99.90
8214;DHT22;4148;47.974;7.824;2023-05-10T12:44:19;17.00;99.90
8214;DHT22;4148;47.974;7.824;2023-05-10T12:46:47;16.80;99.90
8214;DHT22;4148;47.974;7.824;2023-05-10T12:49:15;16.70;99.90
8214;DHT22;4148;47.974;7.824;2023-05-10T12:51:43;16.60;99.90
8214;DHT22;4148;47.974;7.824;2023-05-10T12:54:12;16.60;99.90
8214;DHT22;4148;47.974;7.824;2023-05-10T12:56:40;16.90;99.90
8214;DHT22;4148;47.974;7.824;2023-05-10T12:59:09;16.90;99.90
8214;DHT22;4148;47.974;7.824;2023-05-10T13:01:37;17.00;99.90
8214;DHT22;4148;47.974;7.824;2023-05-10T13:04:05;17.10;99.90
8214;DHT22;4148;47.974;7.824;2023-05-10T13:06:33;17.20;99.90
8214;DHT22;4148;47.974;7.824;2023-05-10T13:09:01;17.20;99.90
8214;DHT22;4148;47.974;7.824;2023-05-10T13:11:31;17.30;99.90
8214;DHT22;4148;47.974;7.824;2023-05-10T13:13:59;17.10;99.90
8214;DHT22;4148;47.974;7.824;2023-05-10T13:16:27;17.10;99.90
8214;DHT22;4148;47.974;7.824;2023-05-10T13:18:55;17.10;99.90
8214;DHT22;4148;47.974;7.824;2023-05-10T13:21:23;17.00;99.90
8214;DHT22;4148;47.974;7.824;2023-05-10T13:23:52;16.90;99.90
8214;DHT22;4148;47.974;7.824;2023-05-10T13:26:20;16.80;99.90
8214;DHT22;4148;47.974;7.824;2023-05-10T13:28:49;16.60;99.90
8214;DHT22;4148;47.974;7.824;2023-05-10T13:31:18;16.50;99.90
8214;DHT22;4148;47.974;7.824;2023-05-10T13:33:47;16.70;99.90
8214;DHT22;4148;47.974;7.824;2023-05-10T13:36:15;16.70;99.90
8214;DHT22;4148;47.974;7.824;2023-05-10T13:38:43;16.70;99.90
8214;DHT22;4148;47.974;7.824;2023-05-10T13:41:10;16.60;99.90
8214;DHT22;4148;47.974;7.824;2023-05-10T13:43:38;16.70;99.90
8214;DHT22;4148;47.974;7.824;2023-05-10T13:46:07;16.70;99.90
8214;DHT22;4148;47.974;7.824;2023-05-10T13:48:35;16.70;99.90
8214;DHT22;4148;47.974;7.824;2023-05-10T13:51:04;16.80;99.90
8214;DHT22;4148;47.974;7.824;2023-05-10T13:53:32;16.80;99.90
8214;DHT22;4148;47.974;7.824;2023-05-10T13:56:01;16.90;99.90
8214;DHT22;4148;47.974;7.824;2023-05-10T13:58:29;16.90;99.90
8214;DHT22;4148;47.974;7.824;2023-05-10T14:00:57;16.90;99.90
8214;DHT22;4148;47.974;7.824;2023-05-10T14:03:26;17.00;99.90
8214;DHT22;4148;47.974;7.824;2023-05-10T14:05:54;17.00;99.90
8214;DHT22;4148;47.974;7.824;2023-05-10T14:08:22;17.10;99.90
8214;DHT22;4148;47.974;7.824;2023-05-10T14:10:50;17.10;99.90
8214;DHT22;4148;47.974;7.824;2023-05-10T14:13:18;17.20;99.90
8214;DHT22;4148;47.974;7.824;2023-05-10T14:15:46;17.30;99.90
8214;DHT22;4148;47.974;7.824;2023-05-10T14:18:14;17.40;99.90
8214;DHT22;4148;47.974;7.824;2023-05-10T14:20:43;17.30;99.90
8214;DHT22;4148;47.974;7.824;2023-05-10T14:23:11;17.40;99.90
8214;DHT22;4148;47.974;7.824;2023-05-10T14:25:40;17.20;99.90
8214;DHT22;4148;47.974;7.824;2023-05-10T14:28:09;17.20;99.90
8214;DHT22;4148;47.974;7.824;2023-05-10T14:30:37;17.10;99.90
8214;DHT22;4148;47.974;7.824;2023-05-10T14:33:05;17.00;99.90
8214;DHT22;4148;47.974;7.824;2023-05-10T14:35:34;16.80;99.90
8214;DHT22;4148;47.974;7.824;2023-05-10T14:38:03;16.70;99.90
8214;DHT22;4148;47.974;7.824;2023-05-10T14:40:31;16.70;99.90
8214;DHT22;4148;47.974;7.824;2023-05-10T14:43:00;16.60;99.90
8214;DHT22;4148;47.974;7.824;2023-05-10T14:45:28;16.60;99.90
8214;DHT22;4148;47.974;7.824;2023-05-10T14:47:56;16.60;99.90
8214;DHT22;4148;47.974;7.824;2023-05-10T14:50:24;16.50;99.90
8214;DHT22;4148;47.974;7.824;2023-05-10T14:53:04;16.50;99.90
8214;DHT22;4148;47.974;7.824;2023-05-10T14:55:32;16.40;99.90
8214;DHT22;4148;47.974;7.824;2023-05-10T14:58:02;16.40;99.90
8214;DHT22;4148;47.974;7.824;2023-05-10T15:00:31;16.40;99.90
8214;DHT22;4148;47.974;7.824;2023-05-10T15:02:59;16.50;99.90
8214;DHT22;4148;47.974;7.824;2023-05-10T15:05:27;16.50;99.90
8214;DHT22;4148;47.974;7.824;2023-05-10T15:07:56;16.60;99.90
8214;DHT22;4148;47.974;7.824;2023-05-10T15:10:25;16.60;99.90
8214;DHT22;4148;47.974;7.824;2023-05-10T15:12:53;16.70;99.90
8214;DHT22;4148;47.974;7.824;2023-05-10T15:15:20;16.70;99.90
8214;DHT22;4148;47.974;7.824;2023-05-10T15:17:48;16.70;99.90
8214;DHT22;4148;47.974;7.824;2023-05-10T15:20:17;16.70;99.90
8214;DHT22;4148;47.974;7.824;2023-05-10T15:22:45;16.80;99.90
8214;DHT22;4148;47.974;7.824;2023-05-10T15:25:12;16.80;99.90
8214;DHT22;4148;47.974;7.824;2023-05-10T15:27:43;16.80;99.90
8214;DHT22;4148;47.974;7.824;2023-05-10T15:30:12;16.90;99.90
8214;DHT22;4148;47.974;7.824;2023-05-10T15:32:39;16.90;99.90
8214;DHT22;4148;47.974;7.824;2023-05-10T15:35:08;17.00;99.90
8214;DHT22;4148;47.974;7.824;2023-05-10T15:37:36;17.10;99.90
8214;DHT22;4148;47.974;7.824;2023-05-10T15:40:05;17.20;99.90
8214;DHT22;4148;47.974;7.824;2023-05-10T15:42:33;17.20;99.90
8214;DHT22;4148;47.974;7.824;2023-05-10T15:45:04;17.20;99.90
8214;DHT22;4148;47.974;7.824;2023-05-10T15:47:32;17.20;99.90
8214;DHT22;4148;47.974;7.824;2023-05-10T15:50:00;17.10;99.90
8214;DHT22;4148;47.974;7.824;2023-05-10T15:52:28;17.00;99.90
8214;DHT22;4148;47.974;7.824;2023-05-10T15:54:56;17.00;99.90
8214;DHT22;4148;47.974;7.824;2023-05-10T15:57:24;16.90;99.90
8214;DHT22;4148;47.974;7.824;2023-05-10T15:59:52;16.90;99.90
8214;DHT22;4148;47.974;7.824;2023-05-10T16:02:21;16.90;99.90
8214;DHT22;4148;47.974;7.824;2023-05-10T16:04:49;16.90;99.90
8214;DHT22;4148;47.974;7.824;2023-05-10T16:07:17;17.00;99.90
8214;DHT22;4148;47.974;7.824;2023-05-10T16:09:45;17.00;99.90
8214;DHT22;4148;47.974;7.824;2023-05-10T16:12:14;17.00;99.90
8214;DHT22;4148;47.974;7.824;2023-05-10T16:14:42;16.80;99.90
8214;DHT22;4148;47.974;7.824;2023-05-10T16:17:10;16.70;99.90
8214;DHT22;4148;47.974;7.824;2023-05-10T16:19:40;16.60;99.90
8214;DHT22;4148;47.974;7.824;2023-05-10T16:22:08;16.40;99.90